createdAt,value
2022-12-18T00:01:35.892Z,15.30
2022-12-18T00:04:05.346Z,16.17
2022-12-18T00:06:33.642Z,16.08
2022-12-18T00:09:01.973Z,17.25
2022-12-18T00:11:31.012Z,16.33
2022-12-18T00:14:00.193Z,18.75
2022-12-18T00:16:28.561Z,18.50
2022-12-18T00:18:58.127Z,17.92
2022-12-18T00:21:24.952Z,18.83
2022-12-18T00:23:52.712Z,19.45
2022-12-18T00:26:45.907Z,17.60
2022-12-18T00:29:15.047Z,15.70
2022-12-18T00:31:43.258Z,13.38
2022-12-18T00:34:14.317Z,12.55
2022-12-18T00:36:42.269Z,12.85
2022-12-18T00:39:09.590Z,16.63
2022-12-18T00:41:36.481Z,17.33
2022-12-18T00:44:04.513Z,18.05
2022-12-18T00:46:32.264Z,17.40
2022-12-18T00:48:59.619Z,16.98
2022-12-18T00:51:27.102Z,23.30
2022-12-18T00:53:54.273Z,28.63
2022-12-18T00:56:25.301Z,23.88
2022-12-18T00:58:52.188Z,23.13
2022-12-18T01:01:19.534Z,21.23
2022-12-18T01:03:46.567Z,21.83
2022-12-18T01:06:15.521Z,21.67
2022-12-18T01:08:42.326Z,21.42
2022-12-18T01:11:14.807Z,22.10
2022-12-18T01:13:42.013Z,22.60
2022-12-18T01:16:09.541Z,20.80
2022-12-18T01:18:36.756Z,20.60
2022-12-18T01:21:08.736Z,21.52
2022-12-18T01:23:35.726Z,21.05
2022-12-18T01:26:11.377Z,20.95
2022-12-18T01:28:38.912Z,12.98
2022-12-18T01:31:17.597Z,20.53
2022-12-18T01:33:45.195Z,24.13
2022-12-18T01:36:21.762Z,23.13
2022-12-18T01:38:48.954Z,23.08
2022-12-18T01:41:17.760Z,17.52
2022-12-18T01:43:51.993Z,20.93
2022-12-18T01:46:20.159Z,23.08
2022-12-18T01:48:51.199Z,23.75
2022-12-18T01:51:18.367Z,32.75
2022-12-18T01:53:47.310Z,32.33
2022-12-18T01:56:17.192Z,28.63
2022-12-18T01:59:13.216Z,30.15
2022-12-18T02:01:40.186Z,34.83
2022-12-18T02:04:25.985Z,35.05
2022-12-18T02:07:19.408Z,25.90
2022-12-18T02:09:56.165Z,26.37
2022-12-18T02:12:25.741Z,20.67
2022-12-18T02:15:07.036Z,29.42
2022-12-18T02:17:48.730Z,20.85
2022-12-18T02:20:29.386Z,22.02
2022-12-18T02:23:31.805Z,21.53
2022-12-18T02:26:33.139Z,18.63
2022-12-18T02:29:06.864Z,21.10
2022-12-18T02:31:41.205Z,23.55
2022-12-18T02:34:10.565Z,31.92
2022-12-18T02:36:41.472Z,32.33
2022-12-18T02:39:12.213Z,37.60
2022-12-18T02:41:39.760Z,32.45
2022-12-18T02:44:13.028Z,28.63
2022-12-18T02:46:43.893Z,23.25
2022-12-18T02:49:26.579Z,21.13
2022-12-18T02:52:19.614Z,19.30
2022-12-18T02:54:54.517Z,21.08
2022-12-18T02:57:51.506Z,23.77
2022-12-18T03:00:25.716Z,20.00
2022-12-18T03:03:15.784Z,24.87
2022-12-18T03:05:51.918Z,24.75
2022-12-18T03:08:37.302Z,26.92
2022-12-18T03:11:07.955Z,32.38
2022-12-18T03:13:40.681Z,31.25
2022-12-18T03:16:12.281Z,23.83
2022-12-18T03:19:01.988Z,21.30
2022-12-18T03:21:38.395Z,20.75
2022-12-18T03:24:08.977Z,24.30
2022-12-18T03:26:40.162Z,19.92
2022-12-18T03:29:16.279Z,23.57
2022-12-18T03:31:48.798Z,18.65
2022-12-18T03:34:23.012Z,28.73
2022-12-18T03:36:50.052Z,23.27
2022-12-18T03:39:16.972Z,17.83
2022-12-18T03:41:52.622Z,27.23
2022-12-18T03:44:29.595Z,20.63
2022-12-18T03:47:14.539Z,21.00
2022-12-18T03:49:56.647Z,21.67
2022-12-18T03:52:33.321Z,29.05
2022-12-18T03:55:02.987Z,20.10
2022-12-18T03:57:32.024Z,23.00
2022-12-18T04:00:03.321Z,20.08
2022-12-18T04:02:34.580Z,18.38
2022-12-18T04:05:06.096Z,24.05
2022-12-18T04:07:33.538Z,20.30
2022-12-18T04:10:02.698Z,19.30
2022-12-18T04:12:30.762Z,17.95
2022-12-18T04:14:57.634Z,25.00
2022-12-18T04:17:24.477Z,28.52
2022-12-18T04:19:51.411Z,24.23
2022-12-18T04:22:18.341Z,23.75
2022-12-18T04:24:45.296Z,20.00
2022-12-18T04:27:12.088Z,22.88
2022-12-18T04:29:38.957Z,23.63
2022-12-18T04:32:06.031Z,23.33
2022-12-18T04:34:32.861Z,25.25
2022-12-18T04:36:59.733Z,25.17
2022-12-18T04:39:26.580Z,22.92
2022-12-18T04:41:53.557Z,18.88
2022-12-18T04:44:20.347Z,20.67
2022-12-18T04:46:47.226Z,23.13
2022-12-18T04:49:14.067Z,24.65
2022-12-18T04:51:40.949Z,23.88
2022-12-18T04:54:07.739Z,24.70
2022-12-18T04:56:34.688Z,24.27
2022-12-18T04:59:01.537Z,24.25
2022-12-18T05:01:34.291Z,24.67
2022-12-18T05:04:02.925Z,24.63
2022-12-18T05:06:30.020Z,26.63
2022-12-18T05:08:56.912Z,23.43
2022-12-18T05:11:23.721Z,23.58
2022-12-18T05:13:52.249Z,26.25
2022-12-18T05:16:19.160Z,30.10
2022-12-18T05:18:46.067Z,29.67
2022-12-18T05:21:13.039Z,26.50
2022-12-18T05:23:40.236Z,20.42
2022-12-18T05:26:08.448Z,17.48
2022-12-18T05:28:36.611Z,26.10
2022-12-18T05:31:05.387Z,25.48
2022-12-18T05:33:34.556Z,24.47
2022-12-18T05:36:02.972Z,33.20
2022-12-18T05:38:31.569Z,29.85
2022-12-18T05:40:59.249Z,29.63
2022-12-18T05:43:27.384Z,23.27
2022-12-18T05:45:55.175Z,25.07
2022-12-18T05:48:22.193Z,22.17
2022-12-18T05:50:51.239Z,21.33
2022-12-18T05:53:20.100Z,20.40
2022-12-18T05:55:48.280Z,25.40
2022-12-18T05:58:16.640Z,25.53
2022-12-18T06:00:46.148Z,26.75
2022-12-18T06:03:15.909Z,23.52
2022-12-18T06:05:45.008Z,27.05
2022-12-18T06:08:13.405Z,22.33
2022-12-18T06:10:42.126Z,25.20
2022-12-18T06:13:09.513Z,27.35
2022-12-18T06:15:39.448Z,28.30
2022-12-18T06:18:06.401Z,23.98
2022-12-18T06:20:33.826Z,24.02
2022-12-18T06:23:02.545Z,26.20
2022-12-18T06:25:29.580Z,27.20
2022-12-18T06:27:56.532Z,23.85
2022-12-18T06:30:23.429Z,23.05
2022-12-18T06:32:56.375Z,24.00
2022-12-18T06:35:24.405Z,23.37
2022-12-18T06:37:54.343Z,22.40
2022-12-18T06:40:21.347Z,17.92
2022-12-18T06:42:50.396Z,24.30
2022-12-18T06:45:20.160Z,26.27
2022-12-18T06:47:47.252Z,30.63
2022-12-18T06:50:17.122Z,30.10
2022-12-18T06:52:46.545Z,30.30
2022-12-18T06:55:13.795Z,29.67
2022-12-18T06:57:40.667Z,29.60
2022-12-18T07:00:08.409Z,34.40
2022-12-18T07:02:35.745Z,42.72
2022-12-18T07:05:07.466Z,38.97
2022-12-18T07:07:37.491Z,36.70
2022-12-18T07:10:04.969Z,41.05
2022-12-18T07:12:32.045Z,34.33
2022-12-18T07:14:59.969Z,29.48
2022-12-18T07:17:26.744Z,33.13
2022-12-18T07:19:54.653Z,32.92
2022-12-18T07:22:21.577Z,32.05
2022-12-18T07:24:48.513Z,31.90
2022-12-18T07:27:15.341Z,23.70
2022-12-18T07:29:42.382Z,20.48
2022-12-18T07:32:09.513Z,29.50
2022-12-18T07:34:36.618Z,28.45
2022-12-18T07:37:06.589Z,30.83
2022-12-18T07:39:33.607Z,30.17
2022-12-18T07:42:00.619Z,31.25
2022-12-18T07:44:27.533Z,32.72
2022-12-18T07:46:54.403Z,31.58
2022-12-18T07:49:21.591Z,31.53
2022-12-18T07:51:48.419Z,34.90
2022-12-18T07:54:15.333Z,31.73
2022-12-18T07:56:42.247Z,31.60
2022-12-18T07:59:09.125Z,31.00
2022-12-18T08:01:36.177Z,30.80
2022-12-18T08:04:03.269Z,32.88
2022-12-18T08:06:30.297Z,31.77
2022-12-18T08:08:57.806Z,34.50
2022-12-18T08:11:27.380Z,32.45
2022-12-18T08:13:55.122Z,30.67
2022-12-18T08:16:23.253Z,29.45
2022-12-18T08:18:50.782Z,31.23
2022-12-18T08:21:23.618Z,29.77
2022-12-18T08:23:52.377Z,31.67
2022-12-18T08:26:19.943Z,30.93
2022-12-18T08:28:47.926Z,32.97
2022-12-18T08:31:15.389Z,30.83
2022-12-18T08:33:43.282Z,31.70
2022-12-18T08:36:11.219Z,30.55
2022-12-18T08:38:38.547Z,29.13
2022-12-18T08:41:11.638Z,26.67
2022-12-18T08:43:38.882Z,29.25
2022-12-18T08:46:06.144Z,33.97
2022-12-18T08:48:33.077Z,28.83
2022-12-18T08:51:01.089Z,27.53
2022-12-18T08:53:34.089Z,31.80
2022-12-18T08:56:02.746Z,29.67
2022-12-18T08:58:30.511Z,23.92
2022-12-18T09:01:27.231Z,20.63
2022-12-18T09:03:54.116Z,18.10
2022-12-18T09:06:22.836Z,22.50
2022-12-18T09:08:50.627Z,16.20
2022-12-18T09:11:26.500Z,13.73
2022-12-18T09:13:54.240Z,12.88
2022-12-18T09:16:25.019Z,15.60
2022-12-18T09:18:59.547Z,17.27
2022-12-18T09:21:29.082Z,15.52
2022-12-18T09:23:57.314Z,15.63
2022-12-18T09:26:25.251Z,15.75
2022-12-18T09:28:52.676Z,15.83
2022-12-18T09:31:22.267Z,15.93
2022-12-18T09:33:49.218Z,16.77
2022-12-18T09:36:18.128Z,15.90
2022-12-18T09:38:46.012Z,29.77
2022-12-18T09:41:42.000Z,17.90
2022-12-18T09:44:32.094Z,18.38
2022-12-18T09:47:04.793Z,17.80
2022-12-18T09:49:36.353Z,17.83
2022-12-18T09:52:12.833Z,18.25
2022-12-18T09:54:42.427Z,18.77
2022-12-18T09:57:15.732Z,22.30
2022-12-18T09:59:47.786Z,20.05
2022-12-18T10:02:21.142Z,20.98
2022-12-18T10:05:13.089Z,21.65
2022-12-18T10:07:56.429Z,23.47
2022-12-18T10:10:32.463Z,20.95
2022-12-18T10:13:04.691Z,19.95
2022-12-18T10:15:53.417Z,21.48
2022-12-18T10:18:46.790Z,19.10
2022-12-18T10:21:19.336Z,19.90
2022-12-18T10:24:32.470Z,20.23
2022-12-18T10:27:17.986Z,19.98
2022-12-18T10:29:46.937Z,18.58
2022-12-18T10:32:19.951Z,20.92
2022-12-18T10:34:48.721Z,19.43
2022-12-18T10:37:22.124Z,18.48
2022-12-18T10:40:19.849Z,27.70
2022-12-18T10:43:12.339Z,23.75
2022-12-18T10:45:39.388Z,20.67
2022-12-18T10:48:18.941Z,20.80
2022-12-18T10:51:10.338Z,21.60
2022-12-18T10:53:40.888Z,26.83
2022-12-18T10:56:08.206Z,24.65
2022-12-18T10:58:37.422Z,23.90
2022-12-18T11:01:09.078Z,31.70
2022-12-18T11:03:46.206Z,48.53
2022-12-18T11:06:14.236Z,35.03
2022-12-18T11:08:44.454Z,32.53
2022-12-18T11:11:22.845Z,33.63
2022-12-18T11:14:18.627Z,27.67
2022-12-18T11:17:23.870Z,32.22
2022-12-18T11:19:41.075Z,21.42
2022-12-18T11:22:27.761Z,40.28
2022-12-18T11:25:33.479Z,34.95
2022-12-18T11:28:26.473Z,19.03
2022-12-18T11:31:16.304Z,17.63
2022-12-18T11:34:12.024Z,18.05
2022-12-18T11:36:43.967Z,19.40
2022-12-18T11:39:18.688Z,18.60
2022-12-18T11:41:56.155Z,17.87
2022-12-18T11:44:31.219Z,18.88
2022-12-18T11:47:09.815Z,17.52
2022-12-18T11:49:37.624Z,20.02
2022-12-18T11:52:31.256Z,19.50
2022-12-18T11:55:02.729Z,17.77
2022-12-18T11:57:41.203Z,16.80
2022-12-18T12:00:20.144Z,17.80
2022-12-18T12:03:05.402Z,19.40
2022-12-18T12:05:41.575Z,19.90
2022-12-18T12:08:08.418Z,19.57
2022-12-18T12:10:48.101Z,17.42
2022-12-18T12:13:27.804Z,17.48
2022-12-18T12:16:00.953Z,16.42
2022-12-18T12:19:05.677Z,17.45
2022-12-18T12:21:44.536Z,19.80
2022-12-18T12:24:22.158Z,20.67
2022-12-18T12:27:03.970Z,18.80
2022-12-18T12:29:42.800Z,16.33
2022-12-18T12:32:21.528Z,18.38
2022-12-18T12:35:09.390Z,14.33
2022-12-18T12:37:36.603Z,16.10
2022-12-18T12:40:15.395Z,18.77
2022-12-18T12:43:16.535Z,21.55
2022-12-18T12:46:07.598Z,21.38
2022-12-18T12:49:04.013Z,23.93
2022-12-18T12:51:35.967Z,19.23
2022-12-18T12:54:05.669Z,22.20
2022-12-18T12:56:45.590Z,19.85
2022-12-18T12:59:20.060Z,34.10
2022-12-18T13:02:17.669Z,22.83
2022-12-18T13:04:58.484Z,27.38
2022-12-18T13:07:34.015Z,28.20
2022-12-18T13:10:19.317Z,34.40
2022-12-18T13:13:02.921Z,25.10
2022-12-18T13:15:44.309Z,20.10
2022-12-18T13:18:20.871Z,20.60
2022-12-18T13:20:59.948Z,21.65
2022-12-18T13:23:38.314Z,21.63
2022-12-18T13:26:08.246Z,22.00
2022-12-18T13:28:35.040Z,22.77
2022-12-18T13:31:03.452Z,19.95
2022-12-18T13:33:30.323Z,23.95
2022-12-18T13:36:30.366Z,27.77
2022-12-18T13:39:19.742Z,20.95
2022-12-18T13:42:06.712Z,18.93
2022-12-18T13:44:41.122Z,19.13
2022-12-18T13:47:38.833Z,24.20
2022-12-18T13:50:23.574Z,18.13
2022-12-18T13:52:52.468Z,19.85
2022-12-18T13:55:21.857Z,22.03
2022-12-18T13:57:48.817Z,17.40
2022-12-18T14:00:30.720Z,19.92
2022-12-18T14:02:59.781Z,19.02
2022-12-18T14:05:38.686Z,20.00
2022-12-18T14:08:14.061Z,19.37
2022-12-18T14:10:49.361Z,23.10
2022-12-18T14:13:30.638Z,25.98
2022-12-18T14:15:59.224Z,25.83
2022-12-18T14:18:53.847Z,23.92
2022-12-18T14:21:24.464Z,20.57
2022-12-18T14:24:05.864Z,18.65
2022-12-18T14:26:33.144Z,20.67
2022-12-18T14:29:18.672Z,18.55
2022-12-18T14:31:46.433Z,19.13
2022-12-18T14:34:19.545Z,17.13
2022-12-18T14:36:55.594Z,15.85
2022-12-18T14:39:23.069Z,18.50
2022-12-18T14:41:50.727Z,16.17
2022-12-18T14:44:17.565Z,17.38
2022-12-18T14:46:47.325Z,17.13
2022-12-18T14:49:35.514Z,20.50
2022-12-18T14:52:07.206Z,16.55
2022-12-18T14:54:38.439Z,15.60
2022-12-18T14:57:30.000Z,16.92
2022-12-18T15:00:08.703Z,13.97
2022-12-18T15:02:37.439Z,17.17
2022-12-18T15:05:30.924Z,18.02
2022-12-18T15:08:01.761Z,16.85
2022-12-18T15:10:33.960Z,18.20
2022-12-18T15:13:00.707Z,19.90
2022-12-18T15:15:36.392Z,18.55
2022-12-18T15:18:04.948Z,20.40
2022-12-18T15:20:33.645Z,22.42
2022-12-18T15:23:00.761Z,21.13
2022-12-18T15:25:37.451Z,22.53
2022-12-18T15:28:16.911Z,20.40
2022-12-18T15:31:00.483Z,21.75
2022-12-18T15:33:33.128Z,21.35
2022-12-18T15:36:09.267Z,28.08
2022-12-18T15:38:36.227Z,20.10
2022-12-18T15:41:03.841Z,20.08
2022-12-18T15:43:31.249Z,18.67
2022-12-18T15:45:58.038Z,18.33
2022-12-18T15:48:25.024Z,19.17
2022-12-18T15:50:54.969Z,19.07
2022-12-18T15:53:21.946Z,18.25
2022-12-18T15:55:49.054Z,20.60
2022-12-18T15:58:15.884Z,19.52
2022-12-18T16:00:43.452Z,19.48
2022-12-18T16:03:12.083Z,18.27
2022-12-18T16:05:53.795Z,19.17
2022-12-18T16:08:21.248Z,17.67
2022-12-18T16:10:48.711Z,18.73
2022-12-18T16:13:20.398Z,17.83
2022-12-18T16:15:47.405Z,17.90
2022-12-18T16:18:16.989Z,18.92
2022-12-18T16:20:43.890Z,19.27
2022-12-18T16:23:11.068Z,17.92
2022-12-18T16:25:38.833Z,18.25
2022-12-18T16:28:06.365Z,16.97
2022-12-18T16:30:44.613Z,17.42
2022-12-18T16:33:11.737Z,17.92
2022-12-18T16:35:38.591Z,17.98
2022-12-18T16:38:05.604Z,18.75
2022-12-18T16:40:34.217Z,18.67
2022-12-18T16:43:02.683Z,19.25
2022-12-18T16:45:29.817Z,21.30
2022-12-18T16:47:56.812Z,20.70
2022-12-18T16:50:26.709Z,20.20
2022-12-18T16:52:54.735Z,19.97
2022-12-18T16:55:25.818Z,19.58
2022-12-18T16:57:52.835Z,21.27
2022-12-18T17:00:19.891Z,20.23
2022-12-18T17:02:47.199Z,21.20
2022-12-18T17:05:14.132Z,20.43
2022-12-18T17:07:40.943Z,20.98
2022-12-18T17:10:09.428Z,23.90
2022-12-18T17:12:40.044Z,21.33
2022-12-18T17:15:07.838Z,26.35
2022-12-18T17:17:34.805Z,42.97
2022-12-18T17:20:01.721Z,45.55
2022-12-18T17:22:29.051Z,24.13
2022-12-18T17:24:56.461Z,21.92
2022-12-18T17:27:23.343Z,21.02
2022-12-18T17:29:51.440Z,22.63
2022-12-18T17:32:18.363Z,20.00
2022-12-18T17:34:45.349Z,18.02
2022-12-18T17:37:12.875Z,19.38
2022-12-18T17:39:39.954Z,19.40
2022-12-18T17:42:07.661Z,21.97
2022-12-18T17:44:35.905Z,21.55
2022-12-18T17:47:06.337Z,31.15
2022-12-18T17:49:35.913Z,20.88
2022-12-18T17:52:02.789Z,21.70
2022-12-18T17:54:29.704Z,32.90
2022-12-18T17:56:57.291Z,34.83
2022-12-18T17:59:24.182Z,18.45
2022-12-18T18:01:51.214Z,15.13
2022-12-18T18:04:19.100Z,17.48
2022-12-18T18:06:46.272Z,15.13
2022-12-18T18:09:16.295Z,15.15
2022-12-18T18:11:45.164Z,19.83
2022-12-18T18:14:18.471Z,22.83
2022-12-18T18:16:47.979Z,20.25
2022-12-18T18:19:18.813Z,33.20
2022-12-18T18:21:48.234Z,19.92
2022-12-18T18:24:19.355Z,16.45
2022-12-18T18:26:47.226Z,23.85
2022-12-18T18:29:20.282Z,20.20
2022-12-18T18:31:48.201Z,19.47
2022-12-18T18:34:27.409Z,20.08
2022-12-18T18:36:54.509Z,18.10
2022-12-18T18:39:21.444Z,18.77
2022-12-18T18:41:48.842Z,25.63
2022-12-18T18:44:20.514Z,15.03
2022-12-18T18:46:51.475Z,16.70
2022-12-18T18:49:18.327Z,15.05
2022-12-18T18:51:45.243Z,10.32
2022-12-18T18:54:12.195Z,13.93
2022-12-18T18:57:18.947Z,16.57
2022-12-18T18:59:31.899Z,16.10
2022-12-18T19:02:04.701Z,16.13
2022-12-18T19:04:33.877Z,15.55
2022-12-18T19:07:01.229Z,20.67
2022-12-18T19:09:31.606Z,17.73
2022-12-18T19:11:58.739Z,16.50
2022-12-18T19:14:25.828Z,17.38
2022-12-18T19:16:52.772Z,18.55
2022-12-18T19:19:20.208Z,14.05
2022-12-18T19:21:47.896Z,13.77
2022-12-18T19:24:14.736Z,15.77
2022-12-18T19:26:41.574Z,15.63
2022-12-18T19:29:09.762Z,17.83
2022-12-18T19:31:37.473Z,15.73
2022-12-18T19:34:05.936Z,16.03
2022-12-18T19:36:34.281Z,16.70
2022-12-18T19:39:02.323Z,18.95
2022-12-18T19:41:32.974Z,18.38
2022-12-18T19:44:02.406Z,18.20
2022-12-18T19:46:35.296Z,17.70
2022-12-18T19:49:02.724Z,15.88
2022-12-18T19:51:31.695Z,17.05
2022-12-18T19:54:01.950Z,16.88
2022-12-18T19:56:37.036Z,19.75
2022-12-18T19:59:04.544Z,17.97
2022-12-18T20:01:32.447Z,18.42
2022-12-18T20:03:59.765Z,18.88
2022-12-18T20:06:38.894Z,18.65
2022-12-18T20:09:06.948Z,16.10
2022-12-18T20:11:41.381Z,17.67
2022-12-18T20:14:10.650Z,15.25
2022-12-18T20:16:38.593Z,17.55
2022-12-18T20:19:10.208Z,29.30
2022-12-18T20:21:37.967Z,16.60
2022-12-18T20:24:05.398Z,15.40
2022-12-18T20:26:32.455Z,13.25
2022-12-18T20:28:59.447Z,13.18
2022-12-18T20:31:26.417Z,15.55
2022-12-18T20:33:55.635Z,14.02
2022-12-18T20:36:29.509Z,11.30
2022-12-18T20:39:00.454Z,15.15
2022-12-18T20:41:38.187Z,14.05
2022-12-18T20:44:23.650Z,14.50
2022-12-18T20:46:58.113Z,14.90
2022-12-18T20:49:27.004Z,18.57
2022-12-18T20:51:57.756Z,14.75
2022-12-18T20:54:27.821Z,15.30
2022-12-18T20:56:55.836Z,16.70
2022-12-18T20:59:22.990Z,9.35
2022-12-18T21:01:50.305Z,19.63
2022-12-18T21:04:19.176Z,13.02
2022-12-18T21:06:52.400Z,12.20
2022-12-18T21:09:23.141Z,16.98
2022-12-18T21:11:50.536Z,14.80
2022-12-18T21:14:20.333Z,28.33
2022-12-18T21:16:48.179Z,16.30
2022-12-18T21:19:21.059Z,15.00
2022-12-18T21:21:47.994Z,17.67
2022-12-18T21:24:15.656Z,23.45
2022-12-18T21:26:45.881Z,22.30
2022-12-18T21:29:19.600Z,23.73
2022-12-18T21:31:46.724Z,27.08
2022-12-18T21:34:23.047Z,23.67
2022-12-18T21:36:50.078Z,13.70
2022-12-18T21:39:17.769Z,15.43
2022-12-18T21:41:46.720Z,16.73
2022-12-18T21:44:16.516Z,28.35
2022-12-18T21:46:50.144Z,18.52
2022-12-18T21:49:20.639Z,12.80
2022-12-18T21:51:49.595Z,12.77
2022-12-18T21:54:17.518Z,12.02
2022-12-18T21:57:00.716Z,16.45
2022-12-18T21:59:31.863Z,17.67
2022-12-18T22:02:02.353Z,23.20
2022-12-18T22:04:29.745Z,21.43
2022-12-18T22:06:57.084Z,23.85
2022-12-18T22:09:25.168Z,19.80
2022-12-18T22:11:52.750Z,15.60
2022-12-18T22:14:20.933Z,18.63
2022-12-18T22:16:48.099Z,20.67
2022-12-18T22:19:16.978Z,17.77
2022-12-18T22:21:48.126Z,27.02
2022-12-18T22:24:26.105Z,21.15
2022-12-18T22:26:54.006Z,24.42
2022-12-18T22:29:29.148Z,25.00
2022-12-18T22:31:57.147Z,27.05
2022-12-18T22:34:24.089Z,24.15
2022-12-18T22:36:51.162Z,23.80
2022-12-18T22:39:20.819Z,25.02
2022-12-18T22:41:48.335Z,23.13
2022-12-18T22:44:17.537Z,16.98
2022-12-18T22:46:51.398Z,11.30
2022-12-18T22:49:32.670Z,9.68
2022-12-18T22:52:01.644Z,11.07
2022-12-18T22:54:28.541Z,10.70
2022-12-18T22:56:55.788Z,10.07
2022-12-18T22:59:24.064Z,7.47
2022-12-18T23:01:57.112Z,7.93
2022-12-18T23:04:27.835Z,8.73
2022-12-18T23:06:58.030Z,10.40
2022-12-18T23:09:24.897Z,11.80
2022-12-18T23:11:51.723Z,10.40
2022-12-18T23:14:18.592Z,11.18
2022-12-18T23:16:45.586Z,13.45
2022-12-18T23:19:14.258Z,13.50
2022-12-18T23:21:46.387Z,13.00
2022-12-18T23:24:13.389Z,7.90
2022-12-18T23:26:40.418Z,7.25
2022-12-18T23:29:07.658Z,7.82
2022-12-18T23:31:37.149Z,8.00
2022-12-18T23:34:05.997Z,8.63
2022-12-18T23:36:35.852Z,8.82
2022-12-18T23:39:15.607Z,7.60
2022-12-18T23:41:58.150Z,9.02
2022-12-18T23:44:25.275Z,7.87
2022-12-18T23:46:52.146Z,8.52
2022-12-18T23:49:18.995Z,8.65
2022-12-18T23:51:45.884Z,8.55
2022-12-18T23:54:12.712Z,6.88
2022-12-18T23:56:39.609Z,6.20
2022-12-18T23:59:06.554Z,6.35
